createdAt,value
2023-01-18T00:01:49.753Z,77.87
2023-01-18T00:04:35.133Z,78.17
2023-01-18T00:07:21.211Z,78.87
2023-01-18T00:10:09.689Z,78.27
2023-01-18T00:12:57.910Z,78.25
2023-01-18T00:15:43.335Z,78.57
2023-01-18T00:18:28.660Z,79.10
2023-01-18T00:21:16.340Z,79.15
2023-01-18T00:24:04.714Z,79.05
2023-01-18T00:26:50.230Z,79.37
2023-01-18T00:29:35.647Z,80.45
2023-01-18T00:32:21.029Z,80.07
2023-01-18T00:35:08.059Z,79.96
2023-01-18T00:37:53.905Z,79.65
2023-01-18T00:40:39.292Z,79.36
2023-01-18T00:43:40.220Z,79.21
2023-01-18T00:46:30.056Z,79.14
2023-01-18T00:49:15.482Z,79.34
2023-01-18T00:52:01.100Z,79.47
2023-01-18T00:54:46.449Z,79.52
2023-01-18T00:57:31.941Z,79.38
2023-01-18T01:00:18.948Z,79.77
2023-01-18T01:03:04.441Z,79.34
2023-01-18T01:06:08.581Z,78.97
2023-01-18T01:08:53.693Z,78.66
2023-01-18T01:11:39.714Z,78.94
2023-01-18T01:14:43.641Z,78.95
2023-01-18T01:17:48.671Z,79.78
2023-01-18T01:20:52.578Z,79.77
2023-01-18T01:23:56.288Z,79.95
2023-01-18T01:26:41.456Z,80.60
2023-01-18T01:29:26.575Z,80.29
2023-01-18T01:32:12.438Z,80.03
2023-01-18T01:34:57.855Z,80.78
2023-01-18T01:37:43.278Z,80.63
2023-01-18T01:40:28.758Z,80.73
2023-01-18T01:43:14.080Z,80.27
2023-01-18T01:45:59.638Z,79.74
2023-01-18T01:48:46.234Z,79.95
2023-01-18T01:51:34.197Z,79.93
2023-01-18T01:54:25.454Z,79.73
2023-01-18T01:57:14.735Z,79.80
2023-01-18T02:00:04.652Z,79.92
2023-01-18T02:03:03.997Z,79.83
2023-01-18T02:05:55.053Z,79.57
2023-01-18T02:08:40.348Z,80.02
2023-01-18T02:11:25.543Z,79.17
2023-01-18T02:14:14.078Z,79.67
2023-01-18T02:17:17.844Z,79.35
2023-01-18T02:20:40.340Z,78.94
2023-01-18T02:23:34.808Z,78.26
2023-01-18T02:27:00.520Z,78.22
2023-01-18T02:29:52.867Z,78.12
2023-01-18T02:32:42.047Z,78.05
2023-01-18T02:35:39.466Z,78.35
2023-01-18T02:38:45.416Z,77.25
2023-01-18T02:42:00.577Z,78.02
2023-01-18T02:45:05.833Z,78.44
2023-01-18T02:47:52.047Z,79.03
2023-01-18T02:50:37.273Z,79.08
2023-01-18T02:53:22.660Z,78.95
2023-01-18T02:56:17.051Z,78.72
2023-01-18T02:59:08.694Z,79.51
2023-01-18T03:02:02.941Z,79.19
2023-01-18T03:04:55.186Z,78.70
2023-01-18T03:07:45.927Z,78.77
2023-01-18T03:10:33.592Z,78.05
2023-01-18T03:13:30.104Z,78.33
2023-01-18T03:16:22.823Z,78.24
2023-01-18T03:19:40.962Z,78.16
2023-01-18T03:22:47.472Z,77.55
2023-01-18T03:25:36.155Z,77.91
2023-01-18T03:28:42.047Z,77.65
2023-01-18T03:31:52.017Z,77.31
2023-01-18T03:34:45.760Z,77.16
2023-01-18T03:37:33.448Z,77.27
2023-01-18T03:40:23.573Z,76.96
2023-01-18T03:43:14.920Z,76.87
2023-01-18T03:46:00.551Z,76.24
2023-01-18T03:48:45.762Z,76.48
2023-01-18T03:51:47.234Z,76.49
2023-01-18T03:54:46.790Z,76.74
2023-01-18T03:57:51.332Z,76.57
2023-01-18T04:00:39.062Z,76.19
2023-01-18T04:03:24.269Z,75.85
2023-01-18T04:06:09.542Z,75.67
2023-01-18T04:08:54.641Z,75.36
2023-01-18T04:11:39.777Z,73.56
2023-01-18T04:14:25.322Z,73.61
2023-01-18T04:17:10.782Z,73.20
2023-01-18T04:19:55.993Z,73.08
2023-01-18T04:22:41.439Z,73.65
2023-01-18T04:25:27.050Z,73.43
2023-01-18T04:28:12.201Z,72.87
2023-01-18T04:30:57.645Z,72.97
2023-01-18T04:33:43.110Z,73.51
2023-01-18T04:36:28.477Z,72.75
2023-01-18T04:39:14.183Z,73.39
2023-01-18T04:41:59.780Z,72.80
2023-01-18T04:44:44.870Z,73.46
2023-01-18T04:47:30.321Z,73.51
2023-01-18T04:50:15.947Z,73.16
2023-01-18T04:53:01.575Z,72.43
2023-01-18T04:55:46.997Z,72.44
2023-01-18T04:58:32.149Z,72.78
2023-01-18T05:01:17.583Z,72.46
2023-01-18T05:04:03.501Z,72.34
2023-01-18T05:06:49.177Z,72.06
2023-01-18T05:09:34.556Z,71.89
2023-01-18T05:12:19.732Z,71.73
2023-01-18T05:15:05.909Z,71.68
2023-01-18T05:17:51.506Z,71.36
2023-01-18T05:20:37.100Z,71.30
2023-01-18T05:23:23.033Z,72.22
2023-01-18T05:26:14.620Z,71.86
2023-01-18T05:29:00.192Z,71.13
2023-01-18T05:31:45.531Z,70.98
2023-01-18T05:34:30.792Z,70.42
2023-01-18T05:37:16.351Z,71.46
2023-01-18T05:40:01.853Z,72.34
2023-01-18T05:42:46.873Z,72.50
2023-01-18T05:45:32.470Z,72.90
2023-01-18T05:48:18.805Z,73.14
2023-01-18T05:51:09.412Z,73.27
2023-01-18T05:53:54.672Z,73.51
2023-01-18T05:56:39.967Z,73.89
2023-01-18T05:59:25.369Z,74.75
2023-01-18T06:02:10.577Z,74.97
2023-01-18T06:04:55.895Z,75.23
2023-01-18T06:07:42.293Z,75.42
2023-01-18T06:10:27.621Z,75.84
2023-01-18T06:13:13.039Z,75.16
2023-01-18T06:15:59.422Z,75.16
2023-01-18T06:18:45.002Z,75.03
2023-01-18T06:21:30.584Z,75.29
2023-01-18T06:24:16.195Z,75.35
2023-01-18T06:27:04.012Z,75.75
2023-01-18T06:29:49.911Z,75.74
2023-01-18T06:32:35.404Z,75.16
2023-01-18T06:35:21.699Z,75.58
2023-01-18T06:38:08.002Z,75.86
2023-01-18T06:40:53.321Z,75.44
2023-01-18T06:43:38.964Z,76.10
2023-01-18T06:46:24.472Z,74.89
2023-01-18T06:49:11.206Z,75.43
2023-01-18T06:51:56.758Z,75.24
2023-01-18T06:54:42.264Z,74.37
2023-01-18T06:57:27.781Z,74.21
2023-01-18T07:00:14.138Z,74.96
2023-01-18T07:02:59.542Z,74.03
2023-01-18T07:05:46.469Z,74.50
2023-01-18T07:08:32.133Z,73.84
2023-01-18T07:11:18.779Z,73.87
2023-01-18T07:14:04.099Z,74.35
2023-01-18T07:16:49.503Z,73.95
2023-01-18T07:19:35.000Z,74.54
2023-01-18T07:22:20.723Z,74.99
2023-01-18T07:25:13.120Z,74.61
2023-01-18T07:27:58.596Z,73.63
2023-01-18T07:30:44.980Z,73.65
2023-01-18T07:33:30.619Z,73.43
2023-01-18T07:36:15.772Z,73.22
2023-01-18T07:39:04.950Z,72.96
2023-01-18T07:41:50.272Z,73.13
2023-01-18T07:44:37.660Z,73.57
2023-01-18T07:47:22.881Z,73.01
2023-01-18T07:50:09.338Z,72.65
2023-01-18T07:52:56.315Z,72.88
2023-01-18T07:55:42.546Z,73.32
2023-01-18T07:58:28.198Z,72.77
2023-01-18T08:01:16.152Z,72.82
2023-01-18T08:04:01.980Z,72.41
2023-01-18T08:06:47.392Z,71.73
2023-01-18T08:09:35.502Z,71.37
2023-01-18T08:12:22.011Z,71.39
2023-01-18T08:15:07.924Z,71.72
2023-01-18T08:17:55.286Z,71.02
2023-01-18T08:20:46.453Z,71.38
2023-01-18T08:23:34.073Z,70.60
2023-01-18T08:26:22.157Z,70.79
2023-01-18T08:29:07.595Z,70.15
2023-01-18T08:31:53.292Z,70.13
2023-01-18T08:34:38.693Z,70.22
2023-01-18T08:37:23.856Z,70.47
2023-01-18T08:40:09.945Z,70.01
2023-01-18T08:43:00.502Z,70.00
2023-01-18T08:45:50.388Z,69.50
2023-01-18T08:48:35.667Z,69.87
2023-01-18T08:51:22.970Z,69.53
2023-01-18T08:54:08.371Z,69.61
2023-01-18T08:56:54.275Z,69.33
2023-01-18T08:59:39.758Z,68.61
2023-01-18T09:02:25.548Z,69.11
2023-01-18T09:05:10.897Z,68.08
2023-01-18T09:07:57.647Z,67.79
2023-01-18T09:10:43.299Z,68.40
2023-01-18T09:13:28.817Z,68.34
2023-01-18T09:16:14.282Z,67.59
2023-01-18T09:18:59.781Z,68.20
2023-01-18T09:21:46.590Z,68.16
2023-01-18T09:24:32.729Z,67.74
2023-01-18T09:27:18.306Z,67.79
2023-01-18T09:30:05.393Z,67.68
2023-01-18T09:32:52.155Z,67.28
2023-01-18T09:35:37.410Z,67.43
2023-01-18T09:38:23.523Z,68.01
2023-01-18T09:41:33.213Z,67.27
2023-01-18T09:44:42.065Z,67.78
2023-01-18T09:47:31.224Z,66.39
2023-01-18T09:50:18.556Z,66.96
2023-01-18T09:53:27.549Z,66.50
2023-01-18T09:56:21.975Z,65.17
2023-01-18T09:59:20.840Z,65.81
2023-01-18T10:02:23.680Z,65.87
2023-01-18T10:05:18.317Z,65.75
2023-01-18T10:08:18.221Z,65.38
2023-01-18T10:11:26.268Z,64.50
2023-01-18T10:14:28.392Z,65.63
2023-01-18T10:17:18.058Z,65.81
2023-01-18T10:20:36.870Z,65.83
2023-01-18T10:23:49.794Z,64.83
2023-01-18T10:26:38.341Z,64.99
2023-01-18T10:29:53.989Z,66.29
2023-01-18T10:32:47.579Z,65.04
2023-01-18T10:35:56.960Z,65.54
2023-01-18T10:38:43.652Z,65.24
2023-01-18T10:41:35.213Z,65.29
2023-01-18T10:44:21.527Z,64.93
2023-01-18T10:47:06.971Z,64.82
2023-01-18T10:49:59.010Z,65.08
2023-01-18T10:52:44.640Z,67.49
2023-01-18T10:55:29.855Z,66.78
2023-01-18T10:58:15.563Z,68.16
2023-01-18T11:01:03.588Z,66.39
2023-01-18T11:03:54.491Z,66.51
2023-01-18T11:06:53.605Z,66.91
2023-01-18T11:09:42.023Z,66.17
2023-01-18T11:12:41.051Z,66.72
2023-01-18T11:15:28.442Z,66.42
2023-01-18T11:18:15.631Z,66.73
2023-01-18T11:21:02.529Z,66.67
2023-01-18T11:23:49.630Z,67.89
2023-01-18T11:26:35.559Z,67.67
2023-01-18T11:29:23.781Z,67.43
2023-01-18T11:32:39.515Z,67.84
2023-01-18T11:35:42.646Z,67.21
2023-01-18T11:38:31.593Z,67.76
2023-01-18T11:41:23.250Z,67.86
2023-01-18T11:44:31.196Z,67.92
2023-01-18T11:47:27.399Z,68.13
2023-01-18T11:50:40.582Z,67.49
2023-01-18T11:53:54.197Z,68.14
2023-01-18T11:56:47.682Z,67.37
2023-01-18T11:59:46.075Z,67.62
2023-01-18T12:03:02.964Z,67.68
2023-01-18T12:06:07.836Z,67.74
2023-01-18T12:09:01.083Z,67.77
2023-01-18T12:12:19.622Z,68.45
2023-01-18T12:15:05.420Z,68.07
2023-01-18T12:18:13.081Z,67.95
2023-01-18T12:21:12.305Z,67.06
2023-01-18T12:24:33.935Z,67.16
2023-01-18T12:27:42.404Z,67.48
2023-01-18T12:30:56.164Z,67.35
2023-01-18T12:34:01.283Z,66.38
2023-01-18T12:36:55.833Z,66.09
2023-01-18T12:39:59.255Z,66.35
2023-01-18T12:43:00.125Z,65.43
2023-01-18T12:45:58.480Z,65.75
2023-01-18T12:48:56.560Z,65.38
2023-01-18T12:51:44.911Z,65.42
2023-01-18T12:54:34.343Z,65.10
2023-01-18T12:57:21.274Z,64.63
2023-01-18T13:00:15.227Z,64.35
2023-01-18T13:03:05.950Z,63.75
2023-01-18T13:06:02.419Z,64.03
2023-01-18T13:09:09.797Z,62.91
2023-01-18T13:11:58.350Z,63.35
2023-01-18T13:15:03.561Z,63.38
2023-01-18T13:18:10.630Z,63.12
2023-01-18T13:21:24.253Z,63.72
2023-01-18T13:24:12.617Z,63.98
2023-01-18T13:27:15.730Z,65.18
2023-01-18T13:30:15.217Z,65.23
2023-01-18T13:33:11.217Z,65.01
2023-01-18T13:36:02.388Z,65.52
2023-01-18T13:38:51.706Z,65.72
2023-01-18T13:41:36.851Z,65.98
2023-01-18T13:44:39.571Z,66.21
2023-01-18T13:47:45.817Z,66.55
2023-01-18T13:50:31.285Z,65.91
2023-01-18T13:53:20.491Z,66.72
2023-01-18T13:56:08.653Z,66.28
2023-01-18T13:59:12.162Z,66.05
2023-01-18T14:02:17.555Z,67.05
2023-01-18T14:05:19.926Z,67.42
2023-01-18T14:08:06.146Z,67.77
2023-01-18T14:10:54.848Z,67.25
2023-01-18T14:13:46.312Z,67.89
2023-01-18T14:16:38.256Z,67.10
2023-01-18T14:19:23.928Z,66.62
2023-01-18T14:22:15.562Z,66.58
2023-01-18T14:25:30.593Z,66.59
2023-01-18T14:28:27.278Z,66.98
2023-01-18T14:31:26.523Z,67.39
2023-01-18T14:34:38.637Z,66.84
2023-01-18T14:37:35.492Z,66.67
2023-01-18T14:40:28.814Z,66.21
2023-01-18T14:43:21.347Z,66.44
2023-01-18T14:46:15.890Z,66.38
2023-01-18T14:49:01.786Z,65.49
2023-01-18T14:51:51.842Z,63.44
2023-01-18T14:54:37.075Z,63.26
2023-01-18T14:57:23.726Z,63.35
2023-01-18T15:00:16.781Z,62.75
2023-01-18T15:03:02.787Z,62.76
2023-01-18T15:05:52.311Z,62.37
2023-01-18T15:08:39.307Z,61.59
2023-01-18T15:11:25.846Z,60.49
2023-01-18T15:14:22.182Z,60.83
2023-01-18T15:17:21.259Z,60.87
2023-01-18T15:20:12.401Z,61.63
2023-01-18T15:22:58.011Z,74.75
2023-01-18T15:25:43.728Z,66.77
2023-01-18T15:28:35.809Z,62.56
2023-01-18T15:31:21.339Z,60.54
2023-01-18T15:34:06.636Z,60.15
2023-01-18T15:36:52.308Z,60.24
2023-01-18T15:39:48.594Z,61.17
2023-01-18T15:42:39.122Z,61.55
2023-01-18T15:45:27.374Z,61.95
2023-01-18T15:48:21.225Z,60.98
2023-01-18T15:51:09.145Z,61.58
2023-01-18T15:53:56.581Z,61.64
2023-01-18T15:56:42.568Z,61.72
2023-01-18T15:59:28.213Z,62.51
2023-01-18T16:02:19.659Z,63.30
2023-01-18T16:05:25.637Z,63.73
2023-01-18T16:08:22.698Z,63.81
2023-01-18T16:11:26.616Z,64.10
2023-01-18T16:14:33.788Z,64.46
2023-01-18T16:17:23.586Z,64.34
2023-01-18T16:20:16.496Z,64.02
2023-01-18T16:23:09.106Z,64.99
2023-01-18T16:26:01.573Z,65.14
2023-01-18T16:28:47.101Z,65.55
2023-01-18T16:31:33.538Z,64.71
2023-01-18T16:34:22.652Z,64.95
2023-01-18T16:37:07.959Z,65.17
2023-01-18T16:39:56.730Z,65.35
2023-01-18T16:43:04.761Z,65.73
2023-01-18T16:45:52.601Z,64.19
2023-01-18T16:48:38.113Z,64.34
2023-01-18T16:51:25.867Z,64.43
2023-01-18T16:54:11.110Z,63.37
2023-01-18T16:56:56.466Z,63.93
2023-01-18T16:59:41.893Z,63.28
2023-01-18T17:02:27.587Z,64.40
2023-01-18T17:05:14.067Z,64.36
2023-01-18T17:08:00.183Z,64.59
2023-01-18T17:10:48.045Z,65.42
2023-01-18T17:13:33.383Z,66.36
2023-01-18T17:16:19.267Z,66.81
2023-01-18T17:19:04.609Z,67.29
2023-01-18T17:21:50.672Z,68.21
2023-01-18T17:24:36.065Z,68.94
2023-01-18T17:27:21.646Z,68.51
2023-01-18T17:30:09.797Z,69.04
2023-01-18T17:32:54.832Z,68.38
2023-01-18T17:35:41.622Z,68.83
2023-01-18T17:41:27.285Z,68.01
2023-01-18T17:44:13.901Z,68.14
2023-01-18T17:46:59.300Z,68.00
2023-01-18T17:49:44.605Z,67.46
2023-01-18T17:52:30.149Z,67.00
2023-01-18T17:55:16.480Z,67.01
2023-01-18T17:58:02.475Z,66.86
2023-01-18T18:00:47.939Z,66.52
2023-01-18T18:03:33.462Z,65.29
2023-01-18T18:06:30.072Z,65.46
2023-01-18T18:09:16.358Z,65.72
2023-01-18T18:12:02.043Z,65.86
2023-01-18T18:14:51.152Z,66.54
2023-01-18T18:17:36.548Z,66.70
2023-01-18T18:20:23.031Z,67.06
2023-01-18T18:23:08.271Z,68.47
2023-01-18T18:25:54.166Z,68.25
2023-01-18T18:28:39.637Z,68.78
2023-01-18T18:31:24.930Z,69.30
2023-01-18T18:34:11.651Z,68.82
2023-01-18T18:36:56.936Z,69.39
2023-01-18T18:39:42.434Z,70.31
2023-01-18T18:42:27.659Z,70.00
2023-01-18T18:45:13.442Z,70.46
2023-01-18T18:47:58.853Z,70.73
2023-01-18T18:50:46.710Z,70.21
2023-01-18T18:53:38.576Z,70.05
2023-01-18T18:56:24.446Z,69.27
2023-01-18T18:59:10.283Z,69.43
2023-01-18T19:01:56.133Z,68.56
2023-01-18T19:04:41.369Z,68.41
2023-01-18T19:07:26.857Z,68.03
2023-01-18T19:10:14.487Z,68.06
2023-01-18T19:13:02.196Z,67.96
2023-01-18T19:15:49.337Z,68.25
2023-01-18T19:18:34.577Z,68.49
2023-01-18T19:21:20.298Z,68.34
2023-01-18T19:24:06.083Z,68.34
2023-01-18T19:26:51.639Z,68.45
2023-01-18T19:29:38.201Z,68.57
2023-01-18T19:32:24.500Z,68.09
2023-01-18T19:35:09.836Z,68.30
2023-01-18T19:37:55.004Z,68.52
2023-01-18T19:40:40.117Z,68.61
2023-01-18T19:43:25.298Z,68.53
2023-01-18T19:46:13.285Z,69.18
2023-01-18T19:48:59.411Z,69.54
2023-01-18T19:51:45.511Z,69.34
2023-01-18T19:54:30.970Z,69.95
2023-01-18T19:57:16.400Z,70.28
2023-01-18T20:00:03.917Z,70.07
2023-01-18T20:02:58.312Z,70.33
2023-01-18T20:05:44.677Z,70.66
2023-01-18T20:08:30.174Z,70.80
2023-01-18T20:11:15.683Z,71.50
2023-01-18T20:14:01.240Z,71.48
2023-01-18T20:16:47.763Z,71.19
2023-01-18T20:19:33.068Z,72.04
2023-01-18T20:22:18.571Z,72.21
2023-01-18T20:25:04.333Z,73.08
2023-01-18T20:27:49.470Z,72.40
2023-01-18T20:30:35.660Z,72.61
2023-01-18T20:33:20.656Z,73.19
2023-01-18T20:36:07.815Z,73.43
2023-01-18T20:38:53.400Z,73.14
2023-01-18T20:41:38.520Z,73.60
2023-01-18T20:44:24.725Z,73.80
2023-01-18T20:47:09.930Z,73.62
2023-01-18T20:49:55.284Z,73.71
2023-01-18T20:52:40.618Z,73.08
2023-01-18T20:55:25.879Z,73.26
2023-01-18T20:58:11.288Z,73.26
2023-01-18T21:00:56.581Z,73.16
2023-01-18T21:03:42.974Z,73.16
2023-01-18T21:06:28.507Z,72.90
2023-01-18T21:09:14.036Z,73.09
2023-01-18T21:11:59.605Z,73.16
2023-01-18T21:14:46.499Z,73.23
2023-01-18T21:17:32.575Z,73.53
2023-01-18T21:20:17.804Z,73.91
2023-01-18T21:23:03.493Z,73.71
2023-01-18T21:25:50.789Z,73.69
2023-01-18T21:28:36.473Z,73.81
2023-01-18T21:31:22.479Z,74.33
2023-01-18T21:34:07.603Z,74.11
2023-01-18T21:36:52.939Z,74.90
2023-01-18T21:39:38.259Z,74.72
2023-01-18T21:42:42.440Z,74.64
2023-01-18T21:45:46.473Z,75.06
2023-01-18T21:48:31.828Z,74.89
2023-01-18T21:51:35.532Z,75.17
2023-01-18T21:54:22.423Z,74.75
2023-01-18T21:57:08.372Z,74.90
2023-01-18T21:59:54.143Z,74.68
2023-01-18T22:02:39.382Z,74.88
2023-01-18T22:05:24.821Z,75.37
2023-01-18T22:08:10.210Z,74.81
2023-01-18T22:10:55.184Z,75.15
2023-01-18T22:13:40.878Z,75.23
2023-01-18T22:16:30.333Z,75.72
2023-01-18T22:19:16.325Z,75.43
2023-01-18T22:22:01.982Z,75.73
2023-01-18T22:24:48.451Z,75.80
2023-01-18T22:27:37.790Z,75.39
2023-01-18T22:30:23.439Z,75.64
2023-01-18T22:33:08.603Z,76.12
2023-01-18T22:35:58.399Z,75.59
2023-01-18T22:38:45.346Z,75.46
2023-01-18T22:41:30.661Z,75.32
2023-01-18T22:44:17.011Z,75.30
2023-01-18T22:47:02.451Z,75.40
2023-01-18T22:49:47.848Z,74.78
2023-01-18T22:52:32.981Z,75.10
2023-01-18T22:55:18.186Z,74.98
2023-01-18T22:58:03.841Z,74.60
2023-01-18T23:00:49.369Z,74.54
2023-01-18T23:03:34.434Z,74.58
2023-01-18T23:06:20.904Z,74.79
2023-01-18T23:09:06.482Z,74.30
2023-01-18T23:11:51.762Z,74.28
2023-01-18T23:14:55.664Z,74.06
2023-01-18T23:17:42.122Z,74.53
2023-01-18T23:20:27.865Z,74.29
2023-01-18T23:23:13.201Z,74.36
2023-01-18T23:26:00.102Z,74.31
2023-01-18T23:28:45.485Z,73.88
2023-01-18T23:31:31.056Z,73.99
2023-01-18T23:34:16.327Z,73.86
2023-01-18T23:37:01.831Z,73.90
2023-01-18T23:40:06.241Z,73.27
2023-01-18T23:43:12.179Z,73.14
2023-01-18T23:46:16.216Z,73.27
2023-01-18T23:49:19.857Z,73.35
2023-01-18T23:52:23.939Z,73.13
2023-01-18T23:55:09.384Z,73.19
2023-01-18T23:57:54.879Z,73.17
